createdAt,value
2023-04-28T05:00:34.650Z,62.20
2023-04-28T05:03:01.783Z,80.60
2023-04-28T05:05:28.910Z,58.00
2023-04-28T05:07:55.897Z,55.50
2023-04-28T05:10:22.782Z,29.80
2023-04-28T05:12:49.725Z,44.00
2023-04-28T05:15:16.652Z,16.50
2023-04-28T05:17:43.618Z,1.00
2023-04-28T05:20:12.754Z,1.00
2023-04-28T05:22:39.868Z,1.00
2023-04-28T05:25:07.569Z,1.00
2023-04-28T05:27:34.602Z,1.00
2023-04-28T05:30:01.505Z,1.00
2023-04-28T05:32:28.771Z,1.00
2023-04-28T05:34:55.669Z,1.00
2023-04-28T05:37:22.540Z,1.00
2023-04-28T05:39:49.438Z,1.00
2023-04-28T05:42:16.316Z,1.00
2023-04-28T05:44:43.294Z,1.00
2023-04-28T05:47:10.445Z,1.00
2023-04-28T05:49:37.756Z,1.00
2023-04-28T05:52:04.990Z,1.00
2023-04-28T05:54:31.873Z,1.00
2023-04-28T05:57:00.837Z,1.00
2023-04-28T05:59:28.759Z,1.00
2023-04-28T06:01:55.845Z,1.00
2023-04-28T06:04:23.220Z,1.00
2023-04-28T06:06:50.875Z,99.90
2023-04-28T06:09:17.970Z,99.90
2023-04-28T06:11:45.080Z,99.90
2023-04-28T06:14:12.013Z,99.90
2023-04-28T06:16:38.925Z,99.90
2023-04-28T06:19:06.051Z,99.90
2023-04-28T06:21:33.719Z,99.90
2023-04-28T06:24:02.028Z,99.90
2023-04-28T06:26:29.459Z,99.90
2023-04-28T06:28:56.520Z,99.90
2023-04-28T06:31:23.465Z,99.90
2023-04-28T06:33:50.388Z,99.90
2023-04-28T06:36:18.181Z,83.50
2023-04-28T06:38:46.069Z,43.30
2023-04-28T06:41:13.023Z,23.50
2023-04-28T06:43:39.915Z,1.00
2023-04-28T06:46:07.079Z,1.00
2023-04-28T06:48:34.067Z,1.00
2023-04-28T06:51:00.978Z,1.00
2023-04-28T06:53:28.093Z,1.00
2023-04-28T06:55:55.148Z,1.00
2023-04-28T06:58:22.236Z,1.00
2023-04-28T07:00:49.257Z,1.00
2023-04-28T07:03:16.240Z,1.00
2023-04-28T07:05:43.209Z,1.00
2023-04-28T07:08:10.509Z,1.00
2023-04-28T07:10:37.372Z,1.00
2023-04-28T07:13:04.429Z,99.90
2023-04-28T07:15:31.625Z,99.90
2023-04-28T07:17:58.651Z,99.90
2023-04-28T07:20:25.588Z,99.90
2023-04-28T07:22:52.460Z,99.90
2023-04-28T07:25:19.406Z,99.90
2023-04-28T07:27:47.019Z,99.90
2023-04-28T07:30:26.430Z,86.50
2023-04-28T07:32:54.594Z,62.50
2023-04-28T07:35:21.622Z,59.80
2023-04-28T07:37:48.509Z,37.20
2023-04-28T07:40:16.082Z,1.00
2023-04-28T07:42:43.370Z,1.00
2023-04-28T07:45:10.871Z,1.00
2023-04-28T07:47:38.132Z,1.00
2023-04-28T07:50:06.747Z,1.00
2023-04-28T07:52:34.337Z,1.00
2023-04-28T07:55:02.488Z,1.00
2023-04-28T07:57:29.486Z,99.90
2023-04-28T07:59:56.506Z,99.90
2023-04-28T08:02:23.607Z,99.90
2023-04-28T08:04:50.801Z,99.90
2023-04-28T08:07:17.897Z,99.90
2023-04-28T08:09:48.396Z,99.90
2023-04-28T08:12:15.750Z,99.90
2023-04-28T08:14:42.820Z,94.80
2023-04-28T08:17:10.116Z,34.40
2023-04-28T08:19:37.165Z,1.00
2023-04-28T08:22:07.104Z,1.00
2023-04-28T08:24:36.854Z,1.00
2023-04-28T08:27:04.137Z,1.00
2023-04-28T08:29:31.982Z,1.00
2023-04-28T08:31:59.351Z,1.00
2023-04-28T08:34:26.519Z,1.00
2023-04-28T08:36:53.681Z,1.00
2023-04-28T08:39:22.582Z,1.00
2023-04-28T08:41:49.810Z,1.00
2023-04-28T08:44:17.800Z,1.00
2023-04-28T08:46:46.772Z,1.00
2023-04-28T08:49:18.763Z,99.90
2023-04-28T08:51:57.467Z,99.90
2023-04-28T08:54:36.393Z,99.90
2023-04-28T08:57:04.505Z,99.90
2023-04-28T08:59:31.794Z,99.90
2023-04-28T09:02:00.605Z,99.90
2023-04-28T09:04:28.026Z,99.90
2023-04-28T09:06:55.219Z,99.90
2023-04-28T09:09:27.456Z,99.90
2023-04-28T09:12:05.101Z,99.90
2023-04-28T09:14:36.672Z,99.90
2023-04-28T09:17:09.320Z,99.90
2023-04-28T09:19:37.729Z,99.90
2023-04-28T09:22:21.939Z,99.90
2023-04-28T09:24:55.388Z,99.90
2023-04-28T09:27:28.470Z,99.90
2023-04-28T09:29:55.647Z,99.90
2023-04-28T09:32:23.951Z,99.90
2023-04-28T09:34:54.248Z,99.90
2023-04-28T09:37:31.146Z,99.90
2023-04-28T09:40:04.367Z,99.90
2023-04-28T09:42:36.324Z,99.90
2023-04-28T09:45:11.284Z,99.90
2023-04-28T09:47:43.860Z,99.90
2023-04-28T09:50:15.094Z,99.40
2023-04-28T09:52:49.119Z,75.60
2023-04-28T09:55:16.438Z,54.70
2023-04-28T09:57:49.846Z,28.80
2023-04-28T10:00:17.734Z,29.90
2023-04-28T10:02:45.591Z,16.50
2023-04-28T10:05:13.204Z,5.90
2023-04-28T10:07:41.377Z,1.00
2023-04-28T10:10:08.944Z,1.00
2023-04-28T10:12:38.776Z,1.00
2023-04-28T10:15:07.762Z,1.00
2023-04-28T10:17:36.775Z,1.00
2023-04-28T10:20:05.354Z,1.00
2023-04-28T10:22:43.200Z,1.00
2023-04-28T10:25:13.114Z,1.00
2023-04-28T10:27:44.762Z,1.00
2023-04-28T10:30:28.678Z,1.00
2023-04-28T10:33:14.830Z,1.00
2023-04-28T10:35:48.168Z,1.00
2023-04-28T10:38:21.522Z,1.00
2023-04-28T10:40:50.513Z,1.00
2023-04-28T10:43:27.271Z,1.00
2023-04-28T10:45:59.507Z,1.00
2023-04-28T10:48:29.907Z,1.00
2023-04-28T10:51:13.050Z,1.00
2023-04-28T10:53:43.416Z,1.00
2023-04-28T10:56:25.470Z,1.00
2023-04-28T10:58:58.554Z,1.00
2023-04-28T11:01:34.883Z,1.00
2023-04-28T11:04:15.855Z,1.00
2023-04-28T11:06:45.937Z,1.00
2023-04-28T11:09:12.787Z,1.00
2023-04-28T11:11:40.648Z,1.00
2023-04-28T11:14:19.626Z,1.00
2023-04-28T11:16:56.220Z,1.00
2023-04-28T11:19:25.319Z,1.00
2023-04-28T11:21:53.664Z,1.00
2023-04-28T11:24:20.647Z,1.00
2023-04-28T11:26:47.640Z,1.00
2023-04-28T11:29:18.029Z,1.00
2023-04-28T11:31:51.794Z,1.00
2023-04-28T11:34:22.708Z,1.00
2023-04-28T11:36:51.069Z,1.00
2023-04-28T11:39:33.165Z,1.00
2023-04-28T11:42:09.846Z,1.00
2023-04-28T11:44:37.033Z,1.00
2023-04-28T11:47:06.166Z,1.00
2023-04-28T11:49:44.033Z,1.00
2023-04-28T11:52:11.469Z,1.00
2023-04-28T11:54:38.917Z,1.00
2023-04-28T11:57:06.947Z,1.00
2023-04-28T11:59:37.790Z,1.00
2023-04-28T12:02:07.623Z,1.00
2023-04-28T12:04:36.499Z,1.00
2023-04-28T12:07:13.899Z,1.00
2023-04-28T12:09:49.435Z,1.00
2023-04-28T12:12:39.984Z,1.00
2023-04-28T12:15:12.773Z,1.00
2023-04-28T12:17:41.650Z,1.00
2023-04-28T12:20:32.331Z,1.00
2023-04-28T12:22:59.252Z,1.00
2023-04-28T12:25:26.874Z,1.00
2023-04-28T12:28:02.777Z,1.00
2023-04-28T12:30:31.828Z,1.00
2023-04-28T12:32:58.880Z,1.00
2023-04-28T12:35:27.560Z,1.00
2023-04-28T12:37:56.202Z,1.00
2023-04-28T12:40:24.561Z,1.00
2023-04-28T12:42:51.853Z,1.00
2023-04-28T12:45:18.868Z,1.00
2023-04-28T12:47:46.335Z,1.00
2023-04-28T12:50:13.337Z,1.00
2023-04-28T12:52:40.567Z,1.00
2023-04-28T12:55:08.289Z,1.00
2023-04-28T12:57:39.010Z,1.00
2023-04-28T13:00:08.140Z,1.00
2023-04-28T13:02:35.300Z,1.00
2023-04-28T13:05:03.228Z,1.00
2023-04-28T13:07:30.561Z,1.00
2023-04-28T13:09:58.443Z,1.00
2023-04-28T13:12:25.926Z,1.00
2023-04-28T13:14:52.900Z,1.00
2023-04-28T13:17:19.828Z,1.00
2023-04-28T13:19:47.449Z,1.00
2023-04-28T13:22:16.126Z,1.00
2023-04-28T13:24:43.614Z,1.00
2023-04-28T13:27:10.794Z,1.00
2023-04-28T13:29:38.026Z,1.00
2023-04-28T13:32:06.059Z,1.00
2023-04-28T13:34:33.723Z,1.00
2023-04-28T13:37:00.677Z,1.00
2023-04-28T13:39:27.555Z,1.00
2023-04-28T13:41:54.514Z,1.00
2023-04-28T13:44:21.551Z,1.00
2023-04-28T13:46:48.788Z,1.00
2023-04-28T13:49:15.825Z,1.00
2023-04-28T13:51:42.803Z,1.00
2023-04-28T13:54:11.532Z,1.00
2023-04-28T13:56:38.654Z,1.00
2023-04-28T13:59:05.596Z,1.00
2023-04-28T14:01:32.542Z,1.00
2023-04-28T14:03:59.780Z,1.00
2023-04-28T14:06:27.817Z,1.00
2023-04-28T14:08:54.789Z,1.00
2023-04-28T14:11:22.666Z,1.00
2023-04-28T14:13:49.632Z,1.00
2023-04-28T14:16:16.664Z,1.00
2023-04-28T14:18:43.635Z,1.00
2023-04-28T14:21:10.662Z,1.00
2023-04-28T14:23:37.943Z,1.00
2023-04-28T14:26:05.051Z,1.00
2023-04-28T14:28:31.939Z,1.00
2023-04-28T14:31:03.499Z,1.00
2023-04-28T14:33:30.495Z,1.00
2023-04-28T14:35:57.419Z,1.00
2023-04-28T14:38:24.379Z,1.00
2023-04-28T14:40:51.620Z,1.00
2023-04-28T14:43:18.534Z,1.00
2023-04-28T14:45:45.577Z,1.00
2023-04-28T14:48:13.513Z,1.00
2023-04-28T14:50:40.967Z,8.80
2023-04-28T14:53:08.374Z,23.40
2023-04-28T14:55:35.671Z,45.40
2023-04-28T14:58:03.023Z,89.70
2023-04-28T15:00:31.604Z,99.90
2023-04-28T15:02:58.739Z,99.90
2023-04-28T15:05:25.663Z,99.90
2023-04-28T15:07:52.847Z,99.90
2023-04-28T15:10:19.788Z,99.90
2023-04-28T15:12:48.501Z,99.90
2023-04-28T15:15:15.541Z,99.90
2023-04-28T15:17:42.998Z,99.90
2023-04-28T15:20:10.418Z,99.90
2023-04-28T15:22:37.705Z,99.90
2023-04-28T15:25:05.401Z,99.90
2023-04-28T15:27:32.820Z,99.90
2023-04-28T15:29:59.676Z,99.90
2023-04-28T15:32:29.002Z,99.90
2023-04-28T15:34:57.361Z,99.90
2023-04-28T15:37:43.241Z,99.90
2023-04-28T15:40:16.805Z,99.90
2023-04-28T15:42:49.194Z,99.90
2023-04-28T15:45:18.511Z,99.90
2023-04-28T15:47:47.531Z,99.90
2023-04-28T15:50:14.532Z,99.90
2023-04-28T15:52:46.067Z,99.90
2023-04-28T15:55:14.444Z,99.90
2023-04-28T15:57:42.894Z,99.90
2023-04-28T16:00:11.726Z,99.90
2023-04-28T16:02:39.401Z,99.90
2023-04-28T16:05:07.542Z,99.90
2023-04-28T16:07:44.604Z,99.90
2023-04-28T16:10:16.652Z,99.90
2023-04-28T16:12:43.849Z,99.90
2023-04-28T16:15:13.232Z,99.90
2023-04-28T16:17:41.535Z,99.90
2023-04-28T16:20:10.191Z,99.90
2023-04-28T16:22:38.834Z,97.30
2023-04-28T16:25:06.837Z,99.90
2023-04-28T16:27:35.160Z,98.20
2023-04-28T16:30:02.162Z,59.20
2023-04-28T16:32:30.286Z,44.80
2023-04-28T16:34:58.698Z,1.00
2023-04-28T16:37:26.233Z,1.00
2023-04-28T16:39:53.309Z,1.00
2023-04-28T16:42:23.018Z,1.00
2023-04-28T16:44:52.474Z,1.00
2023-04-28T16:47:20.335Z,1.00
2023-04-28T16:49:47.854Z,1.00
2023-04-28T16:52:14.931Z,1.00
2023-04-28T16:54:41.988Z,1.00
2023-04-28T16:57:08.881Z,1.00
2023-04-28T16:59:35.958Z,1.00
2023-04-28T17:02:06.799Z,1.00
2023-04-28T17:04:34.398Z,1.00
2023-04-28T17:07:04.659Z,1.00
2023-04-28T17:09:47.578Z,1.00
2023-04-28T17:12:15.767Z,1.00
2023-04-28T17:14:43.038Z,1.00
2023-04-28T17:17:10.079Z,1.00
2023-04-28T17:19:37.710Z,1.00
2023-04-28T17:22:04.706Z,1.00
2023-04-28T17:24:31.857Z,1.00
2023-04-28T17:26:59.313Z,1.00
2023-04-28T17:29:27.482Z,1.00
2023-04-28T17:31:54.675Z,1.00
2023-04-28T17:34:21.802Z,1.00
2023-04-28T17:36:52.035Z,1.00
2023-04-28T17:39:19.506Z,1.00
2023-04-28T17:41:47.418Z,1.00
2023-04-28T17:44:14.320Z,1.00
2023-04-28T17:46:41.316Z,1.00
2023-04-28T17:49:08.715Z,1.00
2023-04-28T17:51:36.075Z,1.00
2023-04-28T17:54:03.025Z,1.00
2023-04-28T17:56:29.877Z,1.00
2023-04-28T17:58:57.068Z,1.00
2023-04-28T18:01:24.047Z,1.00
2023-04-28T18:03:51.809Z,1.00
2023-04-28T18:06:22.649Z,1.00
2023-04-28T18:08:50.189Z,1.00
2023-04-28T18:11:17.248Z,1.00
2023-04-28T18:13:44.556Z,1.00
2023-04-28T18:16:14.910Z,1.00
2023-04-28T18:18:44.831Z,1.00
2023-04-28T18:21:11.922Z,1.00
2023-04-28T18:23:39.412Z,1.00
2023-04-28T18:26:06.331Z,1.00
2023-04-28T18:28:33.971Z,1.00
2023-04-28T18:31:07.026Z,1.00
2023-04-28T18:33:33.893Z,1.00
2023-04-28T18:36:06.338Z,1.00
2023-04-28T18:38:36.214Z,1.00
2023-04-28T18:41:16.244Z,1.00
2023-04-28T18:43:43.935Z,1.00
2023-04-28T18:46:11.310Z,1.00
2023-04-28T18:48:39.090Z,1.00
2023-04-28T18:51:08.945Z,1.00
2023-04-28T18:53:36.418Z,1.00
2023-04-28T18:56:03.428Z,1.00
2023-04-28T18:58:30.335Z,1.00
2023-04-28T19:00:57.228Z,1.00
2023-04-28T19:03:24.993Z,1.00
2023-04-28T19:05:51.927Z,1.00
2023-04-28T19:08:18.814Z,1.00
2023-04-28T19:10:47.518Z,1.00
2023-04-28T19:13:14.495Z,1.00
2023-04-28T19:15:41.422Z,1.00
2023-04-28T19:18:08.396Z,1.00
2023-04-28T19:20:35.838Z,1.00
2023-04-28T19:23:03.825Z,1.00
2023-04-28T19:25:33.674Z,1.00
2023-04-28T19:28:01.240Z,1.00
2023-04-28T19:30:28.327Z,1.00
2023-04-28T19:32:55.563Z,1.00
2023-04-28T19:35:22.717Z,1.00
2023-04-28T19:37:50.022Z,1.00
2023-04-28T19:40:17.510Z,1.00
2023-04-28T19:42:44.734Z,1.00
2023-04-28T19:45:11.913Z,1.00
2023-04-28T19:47:39.046Z,1.00
2023-04-28T19:50:07.616Z,1.00
2023-04-28T19:52:34.477Z,1.00
2023-04-28T19:55:02.071Z,1.00
2023-04-28T19:57:29.300Z,1.00
2023-04-28T19:59:56.443Z,1.00
2023-04-28T20:02:23.617Z,1.00
2023-04-28T20:04:51.406Z,1.00
2023-04-28T20:07:18.515Z,1.00
2023-04-28T20:09:48.706Z,1.00
2023-04-28T20:12:15.873Z,1.00
2023-04-28T20:14:42.753Z,1.00
2023-04-28T20:17:10.497Z,1.00
2023-04-28T20:19:37.830Z,1.00
2023-04-28T20:22:08.462Z,1.00
2023-04-28T20:24:37.484Z,1.00
2023-04-28T20:27:05.036Z,1.00
2023-04-28T20:29:34.956Z,1.00
2023-04-28T20:32:03.444Z,1.00
2023-04-28T20:34:33.914Z,1.00
2023-04-28T20:37:04.432Z,1.00
2023-04-28T20:39:31.409Z,1.00
2023-04-28T20:41:59.463Z,1.00
2023-04-28T20:44:27.272Z,1.00
2023-04-28T20:46:55.337Z,1.00
2023-04-28T20:49:22.942Z,1.00
2023-04-28T20:51:52.826Z,1.00
2023-04-28T20:54:19.692Z,1.00
2023-04-28T20:56:46.552Z,1.00
2023-04-28T20:59:13.424Z,1.00
2023-04-28T21:01:41.207Z,1.00
2023-04-28T21:04:08.819Z,1.00
2023-04-28T21:06:35.944Z,1.00
2023-04-28T21:09:02.833Z,1.00
2023-04-28T21:11:29.688Z,1.00
2023-04-28T21:13:57.479Z,1.00
2023-04-28T21:16:24.419Z,1.00
2023-04-28T21:18:51.298Z,1.00
2023-04-28T21:21:18.756Z,1.00
2023-04-28T21:23:45.688Z,1.00
2023-04-28T21:26:12.946Z,1.00
2023-04-28T21:28:40.162Z,1.00
2023-04-28T21:31:07.289Z,1.00
2023-04-28T21:33:34.345Z,1.00
2023-04-28T21:36:07.379Z,1.00
2023-04-28T21:38:34.756Z,1.00
2023-04-28T21:41:02.620Z,1.00
2023-04-28T21:43:29.517Z,1.00
2023-04-28T21:45:56.457Z,1.00
2023-04-28T21:48:23.376Z,1.00
2023-04-28T21:50:50.286Z,1.00
2023-04-28T21:53:17.134Z,1.00
2023-04-28T21:55:44.990Z,1.00
2023-04-28T21:58:12.375Z,1.00
2023-04-28T22:00:43.952Z,1.00
2023-04-28T22:03:11.292Z,1.00
2023-04-28T22:05:40.456Z,1.00
2023-04-28T22:08:07.681Z,1.00
2023-04-28T22:10:34.997Z,1.00
2023-04-28T22:13:02.098Z,1.00
2023-04-28T22:15:29.706Z,1.00
2023-04-28T22:17:56.669Z,1.00
2023-04-28T22:20:24.028Z,1.00
2023-04-28T22:22:51.323Z,1.00
2023-04-28T22:25:18.476Z,1.00
2023-04-28T22:27:45.690Z,1.00
2023-04-28T22:30:13.368Z,1.00
2023-04-28T22:32:45.705Z,1.00
2023-04-28T22:35:13.037Z,1.00
2023-04-28T22:37:40.365Z,1.00
2023-04-28T22:40:08.587Z,1.00
2023-04-28T22:42:39.518Z,1.00
2023-04-28T22:45:07.353Z,1.00
2023-04-28T22:47:35.134Z,1.00
2023-04-28T22:50:06.591Z,1.00
2023-04-28T22:52:34.364Z,1.00
2023-04-28T22:55:01.366Z,1.00
2023-04-28T22:57:28.728Z,1.00
2023-04-28T22:59:56.093Z,1.00
2023-04-28T23:02:23.830Z,1.00
2023-04-28T23:04:51.189Z,1.00
2023-04-28T23:07:18.391Z,1.00
2023-04-28T23:09:45.486Z,1.00
2023-04-28T23:12:12.514Z,1.00
2023-04-28T23:14:39.835Z,1.00
2023-04-28T23:17:06.776Z,1.00
2023-04-28T23:19:35.641Z,1.00
2023-04-28T23:22:02.549Z,1.00
2023-04-28T23:24:29.538Z,1.00
2023-04-28T23:26:56.740Z,1.00
2023-04-28T23:29:24.005Z,1.00
2023-04-28T23:31:54.620Z,1.00
2023-04-28T23:34:23.172Z,1.00
2023-04-28T23:36:50.700Z,1.00
2023-04-28T23:39:17.552Z,1.00
2023-04-28T23:41:44.582Z,1.00
2023-04-28T23:44:11.721Z,1.00
2023-04-28T23:46:38.656Z,1.00
2023-04-28T23:49:05.635Z,1.00
2023-04-28T23:51:33.105Z,1.00
2023-04-28T23:54:00.137Z,1.00
2023-04-28T23:56:27.406Z,1.00
